Time;durP1;ratioP1;P1;durP2;ratioP2;P2;SDS_P1;SDS_P2;PMS_P1;PMS_P2;Temp;Humidity;BMP_temperature;BMP_pressure;BME280_temperature;BME280_humidity;BME280_pressure;Samples;Min_cycle;Max_cycle;Signal;HPM_P1;HPM_P2
2022/07/03 00:02:25;;;;;;;;;1.00;1.00;;;;;23.05;50.84;101626.13;5096998;27;45604;-74
2022/07/03 00:04:50;;;;;;;;;3.00;1.33;;;;;22.99;50.98;101619.09;5084230;27;45208;-73
2022/07/03 00:07:16;;;;;;;;;1.00;1.00;;;;;22.95;51.13;101617.41;5096761;27;63873;-73
2022/07/03 00:09:41;;;;;;;;;0.00;0.00;;;;;22.92;51.28;101615.69;5079129;27;60208;-73
2022/07/03 00:12:07;;;;;;;;;2.33;1.67;;;;;22.89;51.79;101612.19;5096872;27;45486;-74
2022/07/03 00:14:32;;;;;;;;;4.33;1.00;;;;;22.85;51.91;101614.09;5097092;27;45410;-73
2022/07/03 00:16:58;;;;;;;;;1.00;1.00;;;;;22.85;51.79;101610.47;5097119;27;45311;-73
2022/07/03 00:19:23;;;;;;;;;1.33;1.00;;;;;22.82;52.15;101614.16;5096576;27;55868;-73
2022/07/03 00:21:56;;;;;;;;;3.67;1.00;;;;;22.78;52.31;101612.47;5098547;27;47700;-73
2022/07/03 00:24:28;;;;;;;;;2.00;1.00;;;;;22.74;52.41;101610.78;5081535;27;45383;-73
2022/07/03 00:26:54;;;;;;;;;1.00;1.00;;;;;22.70;52.62;101607.31;5082656;27;45528;-73
2022/07/03 00:29:22;;;;;;;;;3.00;1.67;;;;;22.66;52.94;101607.41;5082976;27;45376;-73
2022/07/03 00:31:48;;;;;;;;;2.33;1.00;;;;;22.64;52.86;101610.16;5100513;27;46541;-73
2022/07/03 00:34:16;;;;;;;;;3.33;2.00;;;;;22.61;52.84;101612.03;5100396;27;45413;-73
2022/07/03 00:36:42;;;;;;;;;1.67;1.67;;;;;22.57;52.72;101613.03;5100490;27;45294;-74
2022/07/03 00:39:07;;;;;;;;;5.00;2.00;;;;;22.53;52.82;101614.03;5100707;27;45200;-73
2022/07/03 00:41:35;;;;;;;;;3.00;1.00;;;;;22.52;53.47;101613.16;5099566;27;68799;-73
2022/07/03 00:44:01;;;;;;;;;1.00;1.00;;;;;22.51;53.16;101607.81;5094381;27;45224;-73
2022/07/03 00:46:27;;;;;;;;;1.67;1.67;;;;;22.46;53.20;101614.19;5094838;27;45283;-73
2022/07/03 00:48:54;;;;;;;;;1.00;1.00;;;;;22.43;53.49;101610.72;5099858;27;45567;-74
2022/07/03 00:51:25;;;;;;;;;1.67;1.67;;;;;22.39;53.69;101620.66;5099855;27;46563;-73
2022/07/03 00:53:53;;;;;;;;;2.00;2.00;;;;;22.38;54.02;101624.28;5099829;27;45212;-73
2022/07/03 00:56:23;;;;;;;;;1.00;1.00;;;;;22.38;54.25;101618.03;5100452;27;45516;-74
2022/07/03 00:58:53;;;;;;;;;3.67;1.67;;;;;22.34;54.15;101616.34;5100417;27;45553;-72
2022/07/03 01:01:19;;;;;;;;;2.00;1.00;;;;;22.30;54.83;101612.81;5099775;27;46525;-73
2022/07/03 01:03:45;;;;;;;;;1.00;1.00;;;;;22.27;54.73;101615.59;5099938;27;45462;-73
2022/07/03 01:06:13;;;;;;;;;1.00;1.00;;;;;22.25;55.15;101609.34;5099243;27;54880;-73
2022/07/03 01:08:51;;;;;;;;;2.00;1.67;;;;;22.22;55.18;101606.78;5100379;27;45277;-74
2022/07/03 01:11:35;;;;;;;;;3.00;1.33;;;;;22.20;55.34;101619.34;5100006;27;46565;-73
2022/07/03 01:14:34;;;;;;;;;2.00;1.00;;;;;22.16;54.87;101617.69;5099656;27;45426;-73
2022/07/03 01:17:15;;;;;;;;;1.00;1.00;;;;;22.12;55.34;101616.88;5093248;27;45271;-73
2022/07/03 01:19:46;;;;;;;;;3.00;0.00;;;;;22.10;55.37;101623.16;5081869;27;45418;-73
2022/07/03 01:22:14;;;;;;;;;1.00;1.00;;;;;22.08;55.44;101625.00;5099766;27;46691;-73
2022/07/03 01:24:39;;;;;;;;;1.00;1.00;;;;;22.07;55.72;101625.94;5099299;27;45472;-73
2022/07/03 01:27:11;;;;;;;;;1.00;1.00;;;;;22.06;55.62;101626.88;5099544;27;45299;-72
2022/07/03 01:29:58;;;;;;;;;3.00;1.00;;;;;22.03;55.90;101629.59;5099878;27;45212;-73
2022/07/03 01:32:28;;;;;;;;;2.00;1.00;;;;;22.00;56.23;101627.91;5080859;27;45508;-73
2022/07/03 01:34:55;;;;;;;;;1.00;1.00;;;;;21.96;56.29;101627.06;5099508;27;45323;-73
2022/07/03 01:37:24;;;;;;;;;1.00;1.00;;;;;21.92;56.59;101622.69;5080863;27;60080;-73
2022/07/03 01:39:52;;;;;;;;;0.67;0.67;;;;;21.89;56.35;101620.06;5099890;27;45547;-74
2022/07/03 01:42:19;;;;;;;;;1.33;1.33;;;;;21.86;56.62;101628.19;5099118;27;46582;-72
2022/07/03 01:44:47;;;;;;;;;1.00;1.00;;;;;21.84;56.53;101618.38;5099288;27;45304;-73
2022/07/03 01:47:14;;;;;;;;;1.33;1.00;;;;;21.82;56.59;101617.56;5099952;27;45284;-73
2022/07/03 01:49:40;;;;;;;;;1.00;1.00;;;;;21.78;57.26;101616.72;5099057;27;45284;-73
2022/07/03 01:52:06;;;;;;;;;2.67;1.00;;;;;21.76;56.85;101606.94;5098778;27;67542;-73
2022/07/03 01:54:31;;;;;;;;;2.00;2.00;;;;;21.73;57.67;101617.75;5079847;27;45281;-74
2022/07/03 01:56:58;;;;;;;;;2.00;2.00;;;;;21.68;57.72;101615.19;5080170;27;58477;-72
2022/07/03 01:59:23;;;;;;;;;1.67;1.67;;;;;21.62;57.46;101616.19;5080333;27;55122;-73
2022/07/03 02:02:00;;;;;;;;;0.00;0.00;;;;;21.58;58.03;101614.50;5097963;27;65280;-72
2022/07/03 02:04:33;;;;;;;;;2.00;2.00;;;;;21.53;58.19;101621.78;5099187;27;45493;-73
2022/07/03 02:07:07;;;;;;;;;1.67;1.00;;;;;21.50;58.61;101623.66;5081029;27;45413;-73
2022/07/03 02:09:44;;;;;;;;;2.00;2.00;;;;;21.45;59.01;101619.25;5099198;27;45385;-72
2022/07/03 02:12:12;;;;;;;;;2.00;2.00;;;;;21.41;58.78;101624.72;5098844;27;46509;-72
2022/07/03 02:14:40;;;;;;;;;2.00;2.00;;;;;21.39;58.89;101624.75;5099044;27;45210;-73
2022/07/03 02:17:20;;;;;;;;;2.00;2.00;;;;;21.38;59.66;101616.75;5099025;27;45204;-73
2022/07/03 02:20:00;;;;;;;;;4.00;2.33;;;;;21.36;59.53;101622.16;5099066;27;45462;-72
2022/07/03 02:22:31;;;;;;;;;2.00;2.00;;;;;21.33;59.71;101616.84;5080801;27;47436;-73
2022/07/03 02:25:06;;;;;;;;;3.33;3.00;;;;;21.30;59.56;101618.69;5080145;27;45632;-72
2022/07/03 02:27:43;;;;;;;;;2.33;2.00;;;;;21.27;59.80;101616.94;5099267;27;45323;-73
2022/07/03 02:30:10;;;;;;;;;2.33;2.33;;;;;21.23;60.23;101615.22;5099098;27;45447;-73
2022/07/03 02:32:40;;;;;;;;;3.67;2.00;;;;;21.20;61.05;101626.03;5098673;27;46678;-73
2022/07/03 02:35:11;;;;;;;;;2.00;2.00;;;;;21.17;60.92;101629.66;5080167;27;45325;-73
2022/07/03 02:37:56;;;;;;;;;1.33;1.33;;;;;21.13;60.99;101629.75;5098625;27;45342;-72
2022/07/03 02:40:46;;;;;;;;;4.67;2.00;;;;;21.10;61.71;101628.03;5080314;27;45554;-72
2022/07/03 02:43:19;;;;;;;;;1.00;1.00;;;;;21.08;61.71;101634.31;5080173;27;47683;-72
2022/07/03 02:49:08;;;;;;;;;1.00;1.00;;;;;21.02;62.08;101635.31;5082985;27;45307;-73
2022/07/03 02:51:37;;;;;;;;;2.00;2.00;;;;;20.99;62.31;101640.78;5098727;27;45488;-72
2022/07/03 02:54:09;;;;;;;;;1.67;1.67;;;;;20.97;62.69;101644.38;5097794;27;47413;-72
2022/07/03 02:56:52;;;;;;;;;2.00;2.00;;;;;20.93;62.55;101639.09;5098013;27;45492;-72
2022/07/03 02:59:45;;;;;;;;;2.00;2.00;;;;;20.90;62.72;101636.44;5098273;27;45450;-72
2022/07/03 03:02:19;;;;;;;;;2.67;1.67;;;;;20.86;63.37;101644.59;5086483;27;45728;-72
2022/07/03 03:04:51;;;;;;;;;2.00;2.00;;;;;20.82;63.15;101643.75;5059565;28;47365;-72
2022/07/03 03:07:18;;;;;;;;;3.00;3.00;;;;;20.78;63.66;101647.44;5098318;27;45444;-72
2022/07/03 03:09:45;;;;;;;;;2.67;1.67;;;;;20.77;63.64;101651.00;5079836;27;45519;-73
2022/07/03 03:12:12;;;;;;;;;2.00;2.00;;;;;20.75;64.54;101644.78;5098195;27;46841;-72
2022/07/03 03:14:45;;;;;;;;;2.00;2.00;;;;;20.70;64.63;101643.97;5098186;27;45704;-72
2022/07/03 03:17:17;;;;;;;;;2.00;2.00;;;;;20.67;64.46;101652.09;5097979;27;45345;-73
2022/07/03 03:19:46;;;;;;;;;4.33;2.00;;;;;20.64;64.69;101641.41;5098220;27;45386;-73
2022/07/03 03:22:20;;;;;;;;;3.00;2.00;;;;;20.63;65.00;101647.69;5080117;27;45409;-72
2022/07/03 03:24:46;;;;;;;;;3.33;2.00;;;;;20.58;65.14;101638.84;5081234;27;46232;-73
2022/07/03 03:27:12;;;;;;;;;1.67;1.67;;;;;20.55;66.15;101642.44;5095337;27;67399;-73
2022/07/03 03:29:38;;;;;;;;;1.67;1.67;;;;;20.53;65.81;101638.91;5097555;27;64120;-72
2022/07/03 03:32:04;;;;;;;;;1.67;1.67;;;;;20.49;66.17;101641.69;5079681;27;45516;-73
2022/07/03 03:34:31;;;;;;;;;3.00;3.00;;;;;20.45;66.41;101632.75;5088105;27;46382;-72
2022/07/03 03:36:56;;;;;;;;;3.00;2.00;;;;;20.45;66.62;101634.56;5059170;28;45252;-72
2022/07/03 03:39:22;;;;;;;;;1.00;1.00;;;;;20.41;66.43;101637.31;5076955;28;53628;-72
2022/07/03 03:41:47;;;;;;;;;2.67;1.67;;;;;20.39;66.63;101641.78;5058664;28;61093;-73
2022/07/03 03:44:12;;;;;;;;;5.00;2.33;;;;;20.35;67.16;101642.78;5051545;28;46387;-73
2022/07/03 03:46:38;;;;;;;;;2.67;2.33;;;;;20.32;67.13;101642.81;5072573;28;60437;-73
2022/07/03 03:49:03;;;;;;;;;1.33;1.33;;;;;20.32;66.96;101641.94;5076607;28;60628;-72
2022/07/03 03:51:28;;;;;;;;;2.67;1.33;;;;;20.31;67.74;101649.09;5093011;27;54623;-72
2022/07/03 03:53:54;;;;;;;;;2.67;1.67;;;;;20.28;67.63;101638.41;5085478;27;47423;-72
2022/07/03 03:56:19;;;;;;;;;1.67;1.67;;;;;20.27;68.10;101638.44;5090464;27;49878;-73
2022/07/03 03:58:44;;;;;;;;;2.00;2.00;;;;;20.21;68.52;101639.41;5097532;27;46002;-72
2022/07/03 04:01:11;;;;;;;;;2.33;1.67;;;;;20.21;67.94;101654.63;5095972;27;57626;-73
2022/07/03 04:03:37;;;;;;;;;2.67;1.67;;;;;20.17;68.42;101650.22;5097543;27;47413;-72
2022/07/03 04:06:03;;;;;;;;;2.67;1.00;;;;;20.15;68.34;101652.94;5097630;27;45386;-72
2022/07/03 04:08:29;;;;;;;;;1.33;1.33;;;;;20.12;68.95;101658.31;5097174;27;45555;-73
2022/07/03 04:10:55;;;;;;;;;0.33;0.33;;;;;20.11;68.73;101657.44;5097491;27;45318;-72
2022/07/03 04:13:21;;;;;;;;;4.00;2.00;;;;;20.12;69.49;101663.69;5096385;27;68371;-72
2022/07/03 04:15:47;;;;;;;;;1.33;1.33;;;;;20.09;69.26;101656.59;5078564;27;45534;-73
2022/07/03 04:18:13;;;;;;;;;1.67;1.67;;;;;20.08;69.92;101665.56;5097265;27;45312;-73
2022/07/03 04:20:38;;;;;;;;;2.00;2.00;;;;;20.06;69.41;101662.00;5097002;27;45636;-72
2022/07/03 04:23:04;;;;;;;;;2.33;2.33;;;;;20.04;69.80;101668.28;5096785;27;48797;-73
2022/07/03 04:25:29;;;;;;;;;1.67;1.67;;;;;20.04;69.76;101669.19;5096258;27;47580;-73
2022/07/03 04:27:55;;;;;;;;;4.33;2.67;;;;;20.04;69.97;101668.28;5097193;27;45464;-73
2022/07/03 04:30:20;;;;;;;;;0.67;0.67;;;;;20.05;70.24;101670.06;5096671;27;48204;-72
2022/07/03 04:32:47;;;;;;;;;1.33;1.33;;;;;20.06;70.17;101669.16;5096992;27;46407;-73
2022/07/03 04:35:13;;;;;;;;;1.00;1.00;;;;;20.05;70.52;101672.75;5096794;27;45287;-72
2022/07/03 04:37:38;;;;;;;;;1.33;1.33;;;;;20.04;70.40;101684.38;5097227;27;45340;-72
2022/07/03 04:40:04;;;;;;;;;3.33;1.33;;;;;20.04;70.70;101679.03;5096138;27;61349;-72
2022/07/03 04:42:29;;;;;;;;;1.33;1.33;;;;;20.03;71.10;101677.25;5096915;27;47213;-72
2022/07/03 04:44:55;;;;;;;;;0.67;0.67;;;;;20.01;71.14;101671.00;5088960;27;65878;-73
2022/07/03 04:47:20;;;;;;;;;1.33;1.33;;;;;20.02;70.92;101683.50;5097056;27;45237;-72
2022/07/03 04:49:46;;;;;;;;;2.67;1.00;;;;;20.00;71.02;101679.97;5082590;27;46826;-72
2022/07/03 04:52:11;;;;;;;;;1.00;1.00;;;;;20.00;71.93;101677.28;5096735;27;46312;-74
2022/07/03 04:54:36;;;;;;;;;1.00;1.00;;;;;19.99;71.62;101676.41;5219643;22;63211;-71
2022/07/03 04:57:03;;;;;;;;;2.67;1.67;;;;;19.98;71.83;101680.00;5100125;27;57944;-71
2022/07/03 04:59:28;;;;;;;;;2.33;1.67;;;;;19.97;72.24;101680.88;5096540;27;45531;-72
2022/07/03 05:01:53;;;;;;;;;1.33;0.33;;;;;19.98;72.36;101679.13;5095153;27;45520;-72
2022/07/03 05:04:19;;;;;;;;;2.00;2.00;;;;;19.96;72.32;101675.56;5095689;27;62934;-71
2022/07/03 05:06:44;;;;;;;;;2.67;1.67;;;;;19.98;72.51;101685.34;5095952;27;61974;-72
2022/07/03 05:09:10;;;;;;;;;2.00;1.33;;;;;19.98;72.99;101681.78;5100087;27;45248;-72
2022/07/03 05:11:36;;;;;;;;;1.67;1.67;;;;;19.99;72.68;101691.59;5100050;27;47404;-72
2022/07/03 05:14:04;;;;;;;;;3.67;2.00;;;;;19.99;72.85;101689.81;5098926;27;63495;-72
2022/07/03 05:16:30;;;;;;;;;3.67;2.33;;;;;19.99;73.30;101692.50;5099865;27;45245;-71
2022/07/03 05:18:56;;;;;;;;;1.33;1.33;;;;;19.97;72.71;101693.41;5099839;27;45512;-74
2022/07/03 05:21:21;;;;;;;;;1.33;1.33;;;;;19.99;73.49;101688.91;5099706;27;46434;-72
2022/07/03 05:23:47;;;;;;;;;1.67;1.67;;;;;20.01;73.64;101696.03;5098757;27;64373;-71
2022/07/03 05:26:12;;;;;;;;;4.33;1.00;;;;;20.02;73.20;101680.81;5099009;27;61677;-74
2022/07/03 05:28:37;;;;;;;;;2.33;1.33;;;;;20.03;73.53;101679.94;5081462;27;45358;-72
2022/07/03 05:31:03;;;;;;;;;2.33;1.33;;;;;20.05;73.50;101686.16;5081346;27;45379;-73
2022/07/03 05:33:28;;;;;;;;;0.33;0.33;;;;;20.07;73.51;101684.31;5098146;27;45473;-73
2022/07/03 05:35:57;;;;;;;;;1.33;1.33;;;;;20.06;73.70;101682.56;5086869;27;45280;-73
2022/07/03 05:41:06;;;;;;;;;0.67;0.67;;;;;20.09;73.37;101688.78;5099531;27;45676;-74
2022/07/03 05:43:32;;;;;;;;;1.67;1.67;;;;;20.12;73.30;101691.38;5097932;27;67609;-74
2022/07/03 05:45:57;;;;;;;;;1.00;1.00;;;;;20.14;73.73;101694.06;5099484;27;45616;-73
2022/07/03 05:48:23;;;;;;;;;1.33;1.33;;;;;20.14;73.27;101694.94;5099033;27;50435;-74
2022/07/03 05:50:48;;;;;;;;;2.33;1.00;;;;;20.13;73.90;101698.53;5099676;27;49222;-73
2022/07/03 05:53:13;;;;;;;;;1.33;1.33;;;;;20.14;73.37;101696.75;5098384;27;64454;-73
2022/07/03 05:55:39;;;;;;;;;1.67;0.67;;;;;20.15;73.68;101703.88;5098124;27;60759;-74
2022/07/03 05:58:04;;;;;;;;;1.33;1.00;;;;;20.15;73.96;101695.84;5098934;27;45200;-74
2022/07/03 06:00:30;;;;;;;;;1.67;1.67;;;;;20.16;73.97;101702.97;5098074;27;71496;-73
2022/07/03 06:02:55;;;;;;;;;3.00;1.00;;;;;20.18;74.85;101701.13;5098856;27;45680;-74
2022/07/03 06:05:20;;;;;;;;;3.00;1.00;;;;;20.21;74.59;101701.09;5098903;27;53714;-74
2022/07/03 06:07:46;;;;;;;;;1.00;1.00;;;;;20.23;74.79;101701.94;5099372;27;45481;-73
2022/07/03 06:10:11;;;;;;;;;1.00;1.00;;;;;20.25;75.08;101700.16;5099244;27;46398;-74
2022/07/03 06:12:36;;;;;;;;;1.33;1.00;;;;;20.29;75.41;101700.97;5097749;27;63347;-74
2022/07/03 06:15:02;;;;;;;;;2.00;1.67;;;;;20.30;75.91;101702.78;5098449;27;56732;-73
2022/07/03 06:17:27;;;;;;;;;2.33;2.33;;;;;20.31;75.63;101704.53;5098916;27;45276;-73
2022/07/03 06:19:52;;;;;;;;;1.67;1.67;;;;;20.35;76.18;101708.94;5096540;27;70607;-73
2022/07/03 06:22:18;;;;;;;;;0.67;0.67;;;;;20.36;76.92;101698.19;5098093;27;63943;-73
2022/07/03 06:24:43;;;;;;;;;1.00;1.00;;;;;20.41;76.61;101708.84;5097001;27;63703;-74
2022/07/03 06:27:08;;;;;;;;;2.00;1.00;;;;;20.45;76.92;101704.31;5098235;27;61514;-73
2022/07/03 06:29:34;;;;;;;;;5.00;2.00;;;;;20.46;76.96;101704.34;5097579;27;68558;-74
2022/07/03 06:31:59;;;;;;;;;4.33;2.00;;;;;20.49;77.43;101700.69;5098402;27;45358;-74
2022/07/03 06:34:25;;;;;;;;;1.00;1.00;;;;;20.54;78.01;101701.50;5089586;27;45469;-74
2022/07/03 06:36:50;;;;;;;;;5.00;2.00;;;;;20.57;78.01;101696.09;5094219;27;45357;-74
2022/07/03 06:39:16;;;;;;;;;2.00;2.00;;;;;20.60;78.41;101701.41;5098305;27;46394;-74
2022/07/03 06:41:41;;;;;;;;;3.00;1.00;;;;;20.64;78.96;101695.97;5098450;27;45500;-73
2022/07/03 06:44:06;;;;;;;;;2.00;2.00;;;;;20.65;78.83;101699.53;5091269;27;45346;-74
2022/07/03 06:46:32;;;;;;;;;3.00;3.00;;;;;20.70;79.47;101703.03;5097345;27;45380;-73
2022/07/03 06:48:57;;;;;;;;;2.00;2.00;;;;;20.68;79.28;101702.19;5097254;27;70371;-74
2022/07/03 06:51:22;;;;;;;;;3.00;3.00;;;;;20.68;80.42;101715.59;5098201;27;45408;-73
2022/07/03 06:53:48;;;;;;;;;5.00;4.00;;;;;20.69;79.92;101706.63;5098102;27;45349;-73
2022/07/03 06:56:13;;;;;;;;;3.67;2.67;;;;;20.73;80.35;101710.16;5097387;27;60407;-73
2022/07/03 06:58:38;;;;;;;;;4.00;4.00;;;;;20.76;80.83;101710.09;5098135;27;45750;-73
2022/07/03 07:01:04;;;;;;;;;1.67;1.67;;;;;20.79;81.28;101707.38;5097391;27;59601;-75
2022/07/03 07:03:29;;;;;;;;;2.33;2.33;;;;;20.78;80.63;101709.16;5097778;27;51683;-75
2022/07/03 07:05:54;;;;;;;;;5.00;3.00;;;;;20.81;81.51;101725.19;5097843;27;45362;-74
2022/07/03 07:08:20;;;;;;;;;4.00;4.00;;;;;20.78;81.52;101722.59;5091451;27;63468;-77
2022/07/03 07:10:45;;;;;;;;;4.00;3.67;;;;;20.77;81.32;101725.28;5096874;27;45451;-74
2022/07/03 07:13:10;;;;;;;;;2.33;2.33;;;;;20.78;82.83;101735.13;5097105;27;45836;-74
2022/07/03 07:15:36;;;;;;;;;5.00;2.00;;;;;20.79;82.31;101726.16;5096395;27;59708;-75
2022/07/03 07:18:01;;;;;;;;;2.00;2.00;;;;;20.80;81.62;101730.59;5096873;27;46451;-76
2022/07/03 07:20:26;;;;;;;;;6.67;2.00;;;;;20.80;82.26;101717.19;5096758;27;56625;-74
2022/07/03 07:22:52;;;;;;;;;4.00;2.67;;;;;20.81;81.87;101725.19;5097303;27;45204;-75
2022/07/03 07:25:17;;;;;;;;;4.00;3.00;;;;;20.85;81.78;101726.94;5096000;27;58994;-74
2022/07/03 07:27:42;;;;;;;;;5.33;3.00;;;;;20.89;82.28;101727.78;5096875;27;63925;-75
2022/07/03 07:30:08;;;;;;;;;4.00;4.00;;;;;20.96;82.18;101731.22;5096076;27;62102;-75
2022/07/03 07:32:34;;;;;;;;;3.33;3.00;;;;;20.99;82.95;101740.13;5097321;27;45308;-76
2022/07/03 07:34:59;;;;;;;;;4.67;3.00;;;;;20.98;82.09;101734.75;5079260;27;62060;-74
2022/07/03 07:37:24;;;;;;;;;3.00;3.00;;;;;21.00;82.25;101727.59;5097378;27;50758;-76
2022/07/03 07:39:49;;;;;;;;;1.67;1.67;;;;;21.04;82.25;101731.97;5096703;27;65277;-76
2022/07/03 07:42:16;;;;;;;;;3.67;3.00;;;;;21.06;82.34;101728.34;5097089;27;63200;-75
2022/07/03 07:44:41;;;;;;;;;4.00;3.00;;;;;21.10;82.16;101729.19;5096907;27;45544;-74
2022/07/03 07:47:07;;;;;;;;;2.67;2.00;;;;;21.15;81.65;101738.06;5096855;27;63224;-74
2022/07/03 07:49:32;;;;;;;;;3.67;3.00;;;;;21.17;82.04;101731.72;5097190;27;45432;-74
2022/07/03 07:51:57;;;;;;;;;1.67;1.67;;;;;21.22;82.39;101731.63;5097733;27;45403;-74
2022/07/03 07:54:23;;;;;;;;;3.00;3.00;;;;;21.27;82.01;101726.19;5096244;27;60559;-75
2022/07/03 07:56:48;;;;;;;;;2.00;2.00;;;;;21.27;81.97;101724.38;5096405;27;64771;-76
2022/07/03 07:59:13;;;;;;;;;3.00;3.00;;;;;21.23;81.46;101738.78;5096253;27;63753;-73
2022/07/03 08:07:06;;;;;;;;;2.00;2.00;;;;;21.12;83.27;101738.09;5094072;27;46004;-76
2022/07/03 08:09:32;;;;;;;;;4.00;2.67;;;;;21.11;82.80;101737.22;5095249;27;45289;-76
2022/07/03 08:11:57;;;;;;;;;2.33;2.00;;;;;21.10;82.48;101724.69;5095175;27;62759;-76
2022/07/03 08:14:22;;;;;;;;;4.00;2.33;;;;;21.15;83.56;101738.94;5095850;27;57193;-75
2022/07/03 08:16:48;;;;;;;;;4.00;2.00;;;;;21.18;83.41;101730.78;5095216;27;67213;-77
2022/07/03 08:19:14;;;;;;;;;2.33;2.33;;;;;21.13;85.11;101731.81;5095707;27;45317;-77
2022/07/03 08:21:40;;;;;;;;;4.33;3.00;;;;;21.10;83.83;101724.69;5095064;27;59485;-77
2022/07/03 08:24:06;;;;;;;;;3.67;2.33;;;;;21.08;84.54;101731.88;5095744;27;45224;-76
2022/07/03 08:26:31;;;;;;;;;2.00;2.00;;;;;21.10;83.65;101724.69;5086103;27;46421;-77
2022/07/03 08:28:56;;;;;;;;;2.67;1.33;;;;;21.13;84.04;101732.69;5087723;27;45803;-77
2022/07/03 08:31:22;;;;;;;;;2.67;2.67;;;;;21.18;83.86;101728.13;5080733;27;45483;-78
2022/07/03 08:33:47;;;;;;;;;2.00;2.00;;;;;21.23;84.47;101743.25;5084162;27;45560;-77
2022/07/03 08:36:13;;;;;;;;;3.00;3.00;;;;;21.28;83.99;101734.19;5090814;27;61984;-77
2022/07/03 08:38:38;;;;;;;;;2.00;2.00;;;;;21.31;83.62;101726.13;5071895;27;67735;-77
2022/07/03 08:41:04;;;;;;;;;3.33;2.00;;;;;21.35;84.17;101724.25;5091069;27;45700;-77
2022/07/03 08:43:30;;;;;;;;;2.00;2.00;;;;;21.38;83.92;101726.91;5092507;27;45589;-77
2022/07/03 08:45:59;;;;;;;;;4.67;2.00;;;;;21.38;83.41;101716.16;5091386;27;47381;-78
2022/07/03 08:48:25;;;;;;;;;2.67;2.00;;;;;21.41;82.79;101718.75;5091525;27;45539;-76
2022/07/03 08:50:52;;;;;;;;;2.00;2.00;;;;;21.42;83.34;101716.06;5094066;27;45532;-78
2022/07/03 08:53:18;;;;;;;;;4.00;4.00;;;;;21.45;83.72;101715.97;5075232;27;45595;-78
2022/07/03 08:55:44;;;;;;;;;4.00;3.00;;;;;21.54;83.65;101720.28;5093234;27;46295;-78
2022/07/03 08:58:12;;;;;;;;;3.67;1.67;;;;;21.62;83.20;101725.50;5058923;27;45570;-78
2022/07/03 09:00:37;;;;;;;;;2.33;2.33;;;;;21.69;82.96;101727.16;5074966;27;45759;-76
2022/07/03 09:03:04;;;;;;;;;2.33;2.33;;;;;21.72;83.26;101719.03;5074498;27;49941;-77
2022/07/03 09:05:29;;;;;;;;;3.67;3.00;;;;;21.78;82.22;101720.69;5073972;27;47502;-77
2022/07/03 09:07:56;;;;;;;;;0.33;0.00;;;;;21.80;82.30;101718.88;5092338;27;64924;-77
2022/07/03 09:10:21;;;;;;;;;2.00;2.00;;;;;21.82;82.33;101727.78;5075585;27;57582;-77
2022/07/03 09:12:47;;;;;;;;;3.00;3.00;;;;;21.86;81.86;101722.31;5094160;27;62148;-77
2022/07/03 09:15:13;;;;;;;;;3.00;3.00;;;;;21.92;81.87;101722.16;5093796;27;45927;-78
2022/07/03 09:17:39;;;;;;;;;3.00;3.00;;;;;21.95;83.23;101721.25;5095592;27;45491;-75
2022/07/03 09:20:06;;;;;;;;;3.67;3.67;;;;;22.03;82.65;101721.06;5088364;27;64439;-76
2022/07/03 09:22:36;;;;;;;;;4.67;3.00;;;;;22.09;82.01;101716.41;5093324;27;45557;-75
2022/07/03 09:25:05;;;;;;;;;3.00;3.00;;;;;22.15;80.60;101715.41;5094980;27;46733;-77
2022/07/03 09:27:30;;;;;;;;;5.33;4.00;;;;;22.23;80.78;101717.03;5091331;27;45528;-77
2022/07/03 09:30:00;;;;;;;;;5.00;4.00;;;;;22.43;82.25;101726.44;5087135;27;63725;-75
2022/07/03 09:32:31;;;;;;;;;4.00;4.00;;;;;22.62;80.70;101718.78;5089215;27;45695;-76
2022/07/03 09:35:13;;;;;;;;;5.33;3.67;;;;;22.72;80.07;101710.44;5093004;27;47270;-76
2022/07/03 09:37:39;;;;;;;;;4.67;2.33;;;;;22.80;79.93;101717.44;5094823;27;45463;-77
2022/07/03 09:40:05;;;;;;;;;4.00;4.00;;;;;22.92;78.17;101720.75;5076129;27;45525;-76
2022/07/03 09:42:31;;;;;;;;;0.00;0.00;;;;;22.99;77.80;101713.38;5095135;27;45557;-76
2022/07/03 09:44:56;;;;;;;;;7.00;4.00;;;;;22.97;77.76;101713.44;5090218;27;68021;-76
2022/07/03 09:47:25;;;;;;;;;4.00;4.00;;;;;22.89;78.19;101714.53;5094221;27;64126;-76
2022/07/03 09:49:56;;;;;;;;;4.00;2.67;;;;;22.83;77.31;101712.88;5071475;27;47501;-76
2022/07/03 09:52:30;;;;;;;;;6.00;6.00;;;;;22.82;78.13;101715.59;5093510;27;45587;-75
2022/07/03 09:54:56;;;;;;;;;6.00;6.00;;;;;22.81;77.77;101716.53;5085608;27;47589;-75
2022/07/03 09:57:25;;;;;;;;;7.33;6.00;;;;;22.78;77.64;101722.88;5074731;27;45497;-75
2022/07/03 10:00:08;;;;;;;;;5.00;5.00;;;;;22.72;76.81;101721.22;5069685;27;45703;-75
2022/07/03 10:02:33;;;;;;;;;6.00;4.33;;;;;22.68;77.01;101716.81;5085925;27;45879;-77
2022/07/03 10:05:12;;;;;;;;;7.33;4.33;;;;;22.63;76.14;101724.13;5074033;27;66363;-74
2022/07/03 10:08:08;;;;;;;;;4.33;4.33;;;;;22.53;77.22;101722.63;5091511;27;45477;-76
2022/07/03 10:10:35;;;;;;;;;6.67;5.00;;;;;22.53;77.11;101719.91;5092617;27;45566;-77
2022/07/03 10:13:01;;;;;;;;;6.00;5.00;;;;;22.62;77.62;101721.47;5092527;27;45438;-76
2022/07/03 10:15:28;;;;;;;;;6.00;6.00;;;;;22.78;77.65;101716.59;5093082;27;46979;-76
2022/07/03 10:17:56;;;;;;;;;5.67;5.00;;;;;22.95;77.75;101722.47;5097410;27;45334;-78
2022/07/03 10:21:11;;;;;;;;;5.00;5.00;;;;;23.12;76.32;101720.22;5089992;27;45486;-77
2022/07/03 10:26:59;;;;;;;;;4.67;4.00;;;;;23.33;74.45;101718.75;5086063;27;46561;-76
2022/07/03 10:29:26;;;;;;;;;3.33;3.33;;;;;23.40;74.13;101714.94;5092245;27;45720;-77
2022/07/03 10:31:52;;;;;;;;;6.67;6.00;;;;;23.47;73.94;101721.94;5090856;27;45461;-76
2022/07/03 10:34:22;;;;;;;;;4.33;3.33;;;;;23.56;73.12;101728.00;5096932;27;45611;-76
2022/07/03 10:36:52;;;;;;;;;5.00;3.00;;;;;23.54;72.07;101728.00;5097425;27;46373;-76
2022/07/03 10:39:33;;;;;;;;;4.67;3.33;;;;;23.47;72.03;101721.94;5098461;27;45537;-76
2022/07/03 10:45:05;;;;;;;;;56.75;42.75;;;;;23.47;70.75;101721.94;5082101;27;45250;-76
2022/07/03 10:47:44;;;;;;;;;4.00;3.00;;;;;23.62;70.82;101722.41;5098473;27;46384;-76
2022/07/03 10:50:28;;;;;;;;;41.75;29.50;;;;;23.73;69.64;101723.03;5097943;27;45342;-77
2022/07/03 10:53:23;;;;;;;;;3.67;3.33;;;;;23.91;69.36;101727.84;5098644;27;45445;-76
2022/07/03 10:56:04;;;;;;;;;49.50;35.50;;;;;24.01;69.57;101714.97;5097910;27;45419;-76
2022/07/03 10:58:29;;;;;;;;;4.67;3.33;;;;;24.12;69.58;101720.03;5098323;27;46444;-77
2022/07/03 11:00:57;;;;;;;;;11.00;9.33;;;;;24.24;69.34;101722.38;5098064;27;45454;-75
2022/07/03 11:03:55;;;;;;;;;40.00;35.25;;;;;24.36;68.04;101723.81;5098189;27;45459;-76
2022/07/03 11:06:22;;;;;;;;;145.75;118.00;;;;;24.49;67.85;101714.38;5097292;27;45294;-76
2022/07/03 11:09:04;;;;;;;;;23.00;21.00;;;;;24.56;67.01;101715.97;5097594;27;46696;-76
2022/07/03 11:11:54;;;;;;;;;12.00;11.67;;;;;24.65;67.09;101712.94;5098408;27;45353;-76
2022/07/03 11:14:20;;;;;;;;;13.00;12.33;;;;;24.77;66.11;101712.53;5097131;27;45216;-75
2022/07/03 11:16:46;;;;;;;;;7.67;5.00;;;;;24.86;66.08;101722.13;5097701;27;45346;-77
2022/07/03 11:19:11;;;;;;;;;7.00;7.00;;;;;24.87;64.14;101720.31;5079244;27;60176;-75
2022/07/03 11:21:42;;;;;;;;;11.67;8.33;;;;;24.80;63.84;101719.66;5079768;27;45251;-77
2022/07/03 11:24:18;;;;;;;;;16.67;13.67;;;;;24.81;63.74;101721.41;5079022;27;45474;-76
2022/07/03 11:26:44;;;;;;;;;21.67;18.67;;;;;24.79;64.43;101729.56;5098093;27;45507;-76
2022/07/03 11:29:25;;;;;;;;;70.00;53.75;;;;;24.78;64.17;101722.41;5094920;27;67382;-76
2022/07/03 11:31:50;;;;;;;;;11.67;11.33;;;;;24.85;64.02;101719.50;5097163;27;45496;-77
2022/07/03 11:34:19;;;;;;;;;4.00;3.67;;;;;25.02;63.89;101714.38;5097343;27;57866;-76
2022/07/03 11:36:44;;;;;;;;;6.33;4.00;;;;;25.14;63.52;101707.69;5097647;27;45612;-76
2022/07/03 11:39:12;;;;;;;;;7.33;6.67;;;;;25.28;63.54;101708.97;5078891;27;64572;-76
2022/07/03 11:41:37;;;;;;;;;11.00;9.00;;;;;25.42;62.71;101711.16;5097895;27;45725;-76
2022/07/03 11:44:03;;;;;;;;;6.33;6.00;;;;;25.50;61.89;101706.34;5097624;27;45496;-76
2022/07/03 11:46:36;;;;;;;;;7.00;5.33;;;;;25.51;61.81;101707.22;5097600;27;45366;-76
2022/07/03 11:49:06;;;;;;;;;99.00;83.33;;;;;25.48;61.27;101705.53;5096914;27;47694;-76